My Meet Scores
Adelyn Tucker, Midwest Elite Gymnastics Academy - MyMeetScores.com
Top100 | Top Teams | Upcoming Meets | Completed Meets | Latest | Add Scores | Help| Support | Bookmark and Share

Adelyn Tucker, Midwest Elite Gymnastics Academy
Personal Bests
LevelVault BarsBeamFloorAA
39.0009.100 9.1008.90035.700
48.9509.625 9.7509.42537.175
68.6509.425 9.6259.42537.100
78.8759.400 9.6759.42536.950
Meet Scores
Date Meet Team Session Level Division Vault Bars Beam Floor AA
2022-04-28 Region 5 Level 6-8 Regional Championship Midwest Elite Gymnastics Academy A13 7 Ch B2 8.850 30 8.675 23 9.675 6 9.425 25 36.625 26
2022-04-27 2022 Region 5 Level 6,7,8 Championships Midwest Elite Gymnastics Academy A13 7 Ch B2 8.850 30 8.675 23 9.675 6 9.425 25 36.625 26
2022-04-01 Level 6-7-8 State 2022 Midwest Elite Gymnastics Academy 05 7 Ch C 8.675 21 9.025 9T 9.350 10T 9.300 18 36.350 15
2022-03-10 Lucky Invite Midwest Elite Gymnastics Academy A04 7 Younger 8.375 16 9.075 8 9.300 5 9.225 11T 35.975 8
2022-03-04 MEGA Spring Invite 2022 Midwest Elite Gymnastics Academy 6 7 Junior 8.600 12 9.350 1 9.375 2 9.375 7 36.700 2
2022-01-21 UGA Invitational Midwest Elite Gymnastics Academy A12 7 Jr B 8.525 17 9.400 4 9.650 1 9.375 7 36.950 7
2022-01-14 2022 Bravo Classic Midwest Elite Gymnastics Academy 11B 7 Child 8.500 12 9.225 6 9.550 1 9.275 8 36.550 6
2021-12-03 Flipstar's Home for the Holidays Midwest Elite Gymnastics Academy 2 7 Younger 8.875 8 9.400 3 9.525 1 8.900 6 36.700 2
2021-04-15 Illinois level 6 & Xcel Silver State Champion St. Charles Gymnastics Academy 06 6 Multiple 8.625 33 9.425 12T 9.625 3T 9.425 30T 37.100 15T
2021-03-12 LUCKY INVITATIONAL St. Charles Gymnastics Academy A02 6 Jr A 8.250 17 9.350 5 9.400 3T 9.125 19 36.125 11
2021-02-19 BIG Classic 2021 St. Charles Gymnastics Academy 1B 6 Child A 8.350 8T 8.075 13 9.525 1 9.225 6 35.175 6
2021-02-11 SCGA Classic 2021 St. Charles Gymnastics Academy 1 6 Jr A 8.300 7 8.750 3 9.425 2 9.350 4 35.825 3
2021-02-11 SCGA Classic 2021 St. Charles Gymnastics Academy 6 6 Jr A 8.300 6 8.750 2 17.050 4
2021-02-11 SCGA Classic 2021 St. Charles Gymnastics Academy 0 6 Jr A 0.000 6*
2021-01-21 King Arthur Invitational St. Charles Gymnastics Academy 4 6 CH 8.650 8 9.000 2 9.525 1 9.175 5 36.350 3
2020-03-06 Illinois Level 4 State Championships St. Charles Gymnastics Academy 3 4 Youth D 8.600 25 9.500 5 9.750 3 9.325 8 37.175 5T
2020-02-21 Great Western Invitational - Women's St. Charles Gymnastics Academy 05 4 Cowgirl 8.575 7 9.625 3 9.600 2T 9.325 3 37.125 2
2020-02-14 Big Classic St. Charles Gymnastics Academy 3B 4 Child C 7.850 29T 9.325 7 9.575 14 8.900 22T 35.650 16
2020-02-07 SCGA Classic St. Charles Gymnastics Academy 4 4 Jr A 8.475 5 9.325 3 9.425 5 9.300 2 36.525 3
2020-01-24 King Arthur Invitational St. Charles Gymnastics Academy 1 4 Jr C 8.725 7 9.300 2 8.325 15 9.100 4T 35.450 8T
2020-01-10 St Jude Benefit Meet St. Charles Gymnastics Academy 3A 4 Jr C 8.750 8T 9.425 4 9.400 1 9.125 2 36.700 3
2019-12-13 2019 St Nick St. Charles Gymnastics Academy 6B 4 JrB 8.875 5T 9.375 3 9.000 5 9.425 4 36.675 3
2019-03-22 Illinois Gymnastics State Championships St. Charles Gymnastics Academy 8 4 Ch C 8.950 8 9.150 10T 9.325 11 9.000 17 36.425 10
2019-02-15 Women's Midwest Open St. Charles Gymnastics Academy 15 4 Junior A 7.000 18 8.850 6 9.150 7T 8.850 15 33.850 13
2019-02-08 IGI Chicago Style 2019 St. Charles Gymnastics Academy 38 4 231 Lakeshore L4 A 8.650 10 8.925 11 9.000 11 8.525 12 35.100 9
2019-01-25 King Arthur Invitational St. Charles Gymnastics Academy 9 4 JR B 7.600 16 8.750 8 9.000 9T 8.700 8 34.050 12
2019-01-11 St Jude Benefit Meet St. Charles Gymnastics Academy 7A 4 Jr B 8.650 10T 8.825 7 9.375 3 8.975 8 35.825 6
2018-12-07 St. Nick Invite 2018 St. Charles Gymnastics Academy 5A 4 JrA 8.125 16 8.650 10 8.925 7T 8.700 14 34.400 11
2018-02-23 Kinetic Classic St. Charles Gymnastics Academy 5 3 Younger 8.675 59T 9.100 57T 9.025 40T 8.900 60T 35.700 57
2018-02-16 Big Classic St. Charles Gymnastics Academy 8B 3 Child A 8.450 13 8.875 7 8.900 7 8.600 11 34.825 8
2018-01-26 King Arthur Invitational St. Charles Gymnastics Academy 7 3 JR B 9.000 10 8.600 7T 9.100 2 8.575 7 35.275 6
2018-01-12 St Jude Benefit Meet St. Charles Gymnastics Academy 7A 3 JrA 8.700 10 8.050 8 8.750 5 8.750 9 34.250 8
2017-12-14 2017 Women's Hawaiian Pineapple Classic St. Charles Gymnastics Academy 4A 3 Age7U 8.800 11 7.600 14 7.900 11 8.200 11 32.500 13
2017-12-01 Ultimate Wish Classic St. Charles Gymnastics Academy 5 3 CH 8.650 18 8.750 7 8.200 10 8.400 15 34.000 11T
2017-11-17 SCGA Classic St. Charles Gymnastics Academy 1 3 Child 8.400 16 7.650 14 8.200 9 8.200 12 32.450 13
Get your scores on
a t-shirt, pin, or hoodie